sensor_id;sensor_type;location;lat;lon;timestamp;temperature;humidity
11047;DHT22;5576;50.008;10.596;2022-09-03T00:02:06;16.40;99.90
11047;DHT22;5576;50.008;10.596;2022-09-03T00:04:46;16.30;99.90
11047;DHT22;5576;50.008;10.596;2022-09-03T00:07:20;16.20;99.90
11047;DHT22;5576;50.008;10.596;2022-09-03T00:09:50;16.20;99.90
11047;DHT22;5576;50.008;10.596;2022-09-03T00:12:25;16.10;99.90
11047;DHT22;5576;50.008;10.596;2022-09-03T00:17:26;16.10;99.90
11047;DHT22;5576;50.008;10.596;2022-09-03T00:20:14;16.00;99.90
11047;DHT22;5576;50.008;10.596;2022-09-03T00:22:45;15.90;99.90
11047;DHT22;5576;50.008;10.596;2022-09-03T00:25:16;16.00;99.90
11047;DHT22;5576;50.008;10.596;2022-09-03T00:27:44;16.00;99.90
11047;DHT22;5576;50.008;10.596;2022-09-03T00:30:14;15.90;99.90
11047;DHT22;5576;50.008;10.596;2022-09-03T00:32:44;17.90;99.90
11047;DHT22;5576;50.008;10.596;2022-09-03T00:35:17;15.80;99.90
11047;DHT22;5576;50.008;10.596;2022-09-03T00:37:45;15.80;99.90
11047;DHT22;5576;50.008;10.596;2022-09-03T00:40:21;15.90;99.90
11047;DHT22;5576;50.008;10.596;2022-09-03T00:45:55;15.70;99.90
11047;DHT22;5576;50.008;10.596;2022-09-03T00:48:26;17.90;99.90
11047;DHT22;5576;50.008;10.596;2022-09-03T00:51:18;15.70;99.90
11047;DHT22;5576;50.008;10.596;2022-09-03T00:54:23;15.70;99.90
11047;DHT22;5576;50.008;10.596;2022-09-03T00:56:54;15.80;99.90
11047;DHT22;5576;50.008;10.596;2022-09-03T01:02:15;15.90;99.90
11047;DHT22;5576;50.008;10.596;2022-09-03T01:04:55;18.40;99.90
11047;DHT22;5576;50.008;10.596;2022-09-03T01:10:15;14.30;99.90
11047;DHT22;5576;50.008;10.596;2022-09-03T01:15:44;15.50;99.90
11047;DHT22;5576;50.008;10.596;2022-09-03T01:18:33;15.50;99.90
11047;DHT22;5576;50.008;10.596;2022-09-03T01:29:31;15.30;99.90
11047;DHT22;5576;50.008;10.596;2022-09-03T01:32:09;15.10;99.90
11047;DHT22;5576;50.008;10.596;2022-09-03T01:34:49;15.10;99.90
11047;DHT22;5576;50.008;10.596;2022-09-03T01:37:33;15.10;99.90
11047;DHT22;5576;50.008;10.596;2022-09-03T01:40:27;15.10;99.90
11047;DHT22;5576;50.008;10.596;2022-09-03T01:43:05;14.50;99.90
11047;DHT22;5576;50.008;10.596;2022-09-03T01:45:46;18.00;99.90
11047;DHT22;5576;50.008;10.596;2022-09-03T01:50:57;14.90;99.90
11047;DHT22;5576;50.008;10.596;2022-09-03T01:59:34;14.90;99.90
11047;DHT22;5576;50.008;10.596;2022-09-03T02:02:06;15.00;99.90
11047;DHT22;5576;50.008;10.596;2022-09-03T02:04:33;15.10;99.90
11047;DHT22;5576;50.008;10.596;2022-09-03T02:07:00;15.10;99.90
11047;DHT22;5576;50.008;10.596;2022-09-03T02:09:26;15.10;99.90
11047;DHT22;5576;50.008;10.596;2022-09-03T02:12:01;15.30;99.90
11047;DHT22;5576;50.008;10.596;2022-09-03T02:14:29;16.20;99.90
11047;DHT22;5576;50.008;10.596;2022-09-03T02:16:57;16.90;99.90
11047;DHT22;5576;50.008;10.596;2022-09-03T02:19:26;11.50;99.90
11047;DHT22;5576;50.008;10.596;2022-09-03T02:21:55;15.20;99.90
11047;DHT22;5576;50.008;10.596;2022-09-03T02:24:22;15.00;99.90
11047;DHT22;5576;50.008;10.596;2022-09-03T02:26:48;15.10;99.90
11047;DHT22;5576;50.008;10.596;2022-09-03T02:29:15;15.10;99.90
11047;DHT22;5576;50.008;10.596;2022-09-03T02:31:42;15.00;99.90
11047;DHT22;5576;50.008;10.596;2022-09-03T02:34:08;15.00;99.90
11047;DHT22;5576;50.008;10.596;2022-09-03T02:36:37;14.90;99.90
11047;DHT22;5576;50.008;10.596;2022-09-03T02:39:04;15.80;99.90
11047;DHT22;5576;50.008;10.596;2022-09-03T02:41:30;14.80;99.90
11047;DHT22;5576;50.008;10.596;2022-09-03T02:46:33;14.70;99.90
11047;DHT22;5576;50.008;10.596;2022-09-03T02:49:00;14.70;99.90
11047;DHT22;5576;50.008;10.596;2022-09-03T02:51:31;14.60;99.90
11047;DHT22;5576;50.008;10.596;2022-09-03T02:53:57;14.50;99.90
11047;DHT22;5576;50.008;10.596;2022-09-03T02:56:22;18.10;99.90
11047;DHT22;5576;50.008;10.596;2022-09-03T02:58:52;14.60;99.90
11047;DHT22;5576;50.008;10.596;2022-09-03T03:01:19;14.50;99.90
11047;DHT22;5576;50.008;10.596;2022-09-03T03:03:44;14.40;99.90
11047;DHT22;5576;50.008;10.596;2022-09-03T03:06:11;14.90;99.90
11047;DHT22;5576;50.008;10.596;2022-09-03T03:08:39;18.10;99.90
11047;DHT22;5576;50.008;10.596;2022-09-03T03:11:04;14.50;99.90
11047;DHT22;5576;50.008;10.596;2022-09-03T03:13:31;11.80;99.90
11047;DHT22;5576;50.008;10.596;2022-09-03T03:15:58;14.50;99.90
11047;DHT22;5576;50.008;10.596;2022-09-03T03:18:24;14.50;99.90
11047;DHT22;5576;50.008;10.596;2022-09-03T03:20:50;14.50;99.90
11047;DHT22;5576;50.008;10.596;2022-09-03T03:23:16;14.30;99.90
11047;DHT22;5576;50.008;10.596;2022-09-03T03:25:42;14.30;99.90
11047;DHT22;5576;50.008;10.596;2022-09-03T03:28:08;14.30;99.90
11047;DHT22;5576;50.008;10.596;2022-09-03T03:30:36;14.50;99.90
11047;DHT22;5576;50.008;10.596;2022-09-03T03:33:05;14.60;99.90
11047;DHT22;5576;50.008;10.596;2022-09-03T03:35:32;14.60;99.90
11047;DHT22;5576;50.008;10.596;2022-09-03T03:37:58;14.60;99.90
11047;DHT22;5576;50.008;10.596;2022-09-03T03:40:24;14.60;99.90
11047;DHT22;5576;50.008;10.596;2022-09-03T03:42:50;16.20;99.90
11047;DHT22;5576;50.008;10.596;2022-09-03T03:45:16;14.60;99.90
11047;DHT22;5576;50.008;10.596;2022-09-03T03:47:42;14.50;99.90
11047;DHT22;5576;50.008;10.596;2022-09-03T03:50:08;14.60;99.90
11047;DHT22;5576;50.008;10.596;2022-09-03T03:52:33;14.60;99.90
11047;DHT22;5576;50.008;10.596;2022-09-03T03:54:59;14.40;99.90
11047;DHT22;5576;50.008;10.596;2022-09-03T03:57:28;14.40;99.90
11047;DHT22;5576;50.008;10.596;2022-09-03T03:59:53;16.30;99.90
11047;DHT22;5576;50.008;10.596;2022-09-03T04:02:19;17.00;99.90
11047;DHT22;5576;50.008;10.596;2022-09-03T04:04:46;15.90;99.90
11047;DHT22;5576;50.008;10.596;2022-09-03T04:07:11;14.40;99.90
11047;DHT22;5576;50.008;10.596;2022-09-03T04:09:37;16.30;99.90
11047;DHT22;5576;50.008;10.596;2022-09-03T04:12:03;14.50;99.90
11047;DHT22;5576;50.008;10.596;2022-09-03T04:14:33;14.60;99.90
11047;DHT22;5576;50.008;10.596;2022-09-03T04:17:00;14.60;99.90
11047;DHT22;5576;50.008;10.596;2022-09-03T04:19:26;14.60;99.90
11047;DHT22;5576;50.008;10.596;2022-09-03T04:21:53;14.10;99.90
11047;DHT22;5576;50.008;10.596;2022-09-03T04:24:19;14.50;99.90
11047;DHT22;5576;50.008;10.596;2022-09-03T04:26:45;14.30;99.90
11047;DHT22;5576;50.008;10.596;2022-09-03T04:29:11;12.00;99.90
11047;DHT22;5576;50.008;10.596;2022-09-03T04:31:38;14.30;99.90
11047;DHT22;5576;50.008;10.596;2022-09-03T04:34:04;15.20;99.90
11047;DHT22;5576;50.008;10.596;2022-09-03T04:36:31;14.20;99.90
11047;DHT22;5576;50.008;10.596;2022-09-03T04:38:59;14.30;99.90
11047;DHT22;5576;50.008;10.596;2022-09-03T04:41:28;14.20;99.90
11047;DHT22;5576;50.008;10.596;2022-09-03T04:43:55;14.00;99.90
11047;DHT22;5576;50.008;10.596;2022-09-03T04:46:24;13.80;99.90
11047;DHT22;5576;50.008;10.596;2022-09-03T04:48:52;13.70;99.90
11047;DHT22;5576;50.008;10.596;2022-09-03T04:51:20;13.60;99.90
11047;DHT22;5576;50.008;10.596;2022-09-03T04:53:47;13.70;99.90
11047;DHT22;5576;50.008;10.596;2022-09-03T04:56:19;13.70;99.90
11047;DHT22;5576;50.008;10.596;2022-09-03T04:58:46;13.60;99.90
11047;DHT22;5576;50.008;10.596;2022-09-03T05:01:17;13.50;99.90
11047;DHT22;5576;50.008;10.596;2022-09-03T05:03:43;14.60;99.90
11047;DHT22;5576;50.008;10.596;2022-09-03T05:06:09;13.60;99.90
11047;DHT22;5576;50.008;10.596;2022-09-03T05:08:35;13.60;99.90
11047;DHT22;5576;50.008;10.596;2022-09-03T05:11:03;13.60;99.90
11047;DHT22;5576;50.008;10.596;2022-09-03T05:13:29;14.60;99.90
11047;DHT22;5576;50.008;10.596;2022-09-03T05:16:04;13.90;99.90
11047;DHT22;5576;50.008;10.596;2022-09-03T05:18:31;13.90;99.90
11047;DHT22;5576;50.008;10.596;2022-09-03T05:20:58;13.90;99.90
11047;DHT22;5576;50.008;10.596;2022-09-03T05:23:24;15.10;99.90
11047;DHT22;5576;50.008;10.596;2022-09-03T05:25:59;15.90;99.90
11047;DHT22;5576;50.008;10.596;2022-09-03T05:28:27;13.80;99.90
11047;DHT22;5576;50.008;10.596;2022-09-03T05:31:05;13.90;99.90
11047;DHT22;5576;50.008;10.596;2022-09-03T05:33:40;14.10;99.90
11047;DHT22;5576;50.008;10.596;2022-09-03T05:36:09;15.90;99.90
11047;DHT22;5576;50.008;10.596;2022-09-03T05:38:35;18.40;99.90
11047;DHT22;5576;50.008;10.596;2022-09-03T05:41:04;14.10;99.90
11047;DHT22;5576;50.008;10.596;2022-09-03T05:43:31;14.10;99.90
11047;DHT22;5576;50.008;10.596;2022-09-03T05:45:59;14.00;99.90
11047;DHT22;5576;50.008;10.596;2022-09-03T05:48:25;14.80;99.90
11047;DHT22;5576;50.008;10.596;2022-09-03T05:51:09;14.20;99.90
11047;DHT22;5576;50.008;10.596;2022-09-03T05:53:37;18.10;99.90
11047;DHT22;5576;50.008;10.596;2022-09-03T05:56:06;16.00;99.90
11047;DHT22;5576;50.008;10.596;2022-09-03T05:58:36;12.40;99.90
11047;DHT22;5576;50.008;10.596;2022-09-03T06:01:21;14.40;99.90
11047;DHT22;5576;50.008;10.596;2022-09-03T06:03:53;14.30;99.90
11047;DHT22;5576;50.008;10.596;2022-09-03T06:06:20;18.20;99.90
11047;DHT22;5576;50.008;10.596;2022-09-03T06:08:51;14.20;99.90
11047;DHT22;5576;50.008;10.596;2022-09-03T06:11:17;14.20;99.90
11047;DHT22;5576;50.008;10.596;2022-09-03T06:13:42;14.00;99.90
11047;DHT22;5576;50.008;10.596;2022-09-03T06:16:08;16.20;99.90
11047;DHT22;5576;50.008;10.596;2022-09-03T06:18:34;14.40;99.90
11047;DHT22;5576;50.008;10.596;2022-09-03T06:21:03;14.50;99.90
11047;DHT22;5576;50.008;10.596;2022-09-03T06:23:30;14.60;99.90
11047;DHT22;5576;50.008;10.596;2022-09-03T06:28:28;14.70;99.90
11047;DHT22;5576;50.008;10.596;2022-09-03T06:30:57;14.80;99.90
11047;DHT22;5576;50.008;10.596;2022-09-03T06:33:23;14.90;99.90
11047;DHT22;5576;50.008;10.596;2022-09-03T06:35:53;16.60;99.90
11047;DHT22;5576;50.008;10.596;2022-09-03T06:38:23;15.10;99.90
11047;DHT22;5576;50.008;10.596;2022-09-03T06:40:52;15.30;99.90
11047;DHT22;5576;50.008;10.596;2022-09-03T06:43:18;15.30;99.90
11047;DHT22;5576;50.008;10.596;2022-09-03T06:45:53;15.40;99.90
11047;DHT22;5576;50.008;10.596;2022-09-03T06:48:19;15.50;99.90
11047;DHT22;5576;50.008;10.596;2022-09-03T06:50:53;15.40;99.90
11047;DHT22;5576;50.008;10.596;2022-09-03T06:53:19;17.00;99.90
11047;DHT22;5576;50.008;10.596;2022-09-03T06:55:53;15.60;99.90
11047;DHT22;5576;50.008;10.596;2022-09-03T06:58:19;18.80;99.90
11047;DHT22;5576;50.008;10.596;2022-09-03T07:00:45;15.50;99.90
11047;DHT22;5576;50.008;10.596;2022-09-03T07:03:10;15.70;99.90
11047;DHT22;5576;50.008;10.596;2022-09-03T07:05:36;15.70;99.90
11047;DHT22;5576;50.008;10.596;2022-09-03T07:08:02;17.00;99.90
11047;DHT22;5576;50.008;10.596;2022-09-03T07:10:27;13.70;99.90
11047;DHT22;5576;50.008;10.596;2022-09-03T07:12:53;15.80;99.90
11047;DHT22;5576;50.008;10.596;2022-09-03T07:15:20;16.00;99.90
11047;DHT22;5576;50.008;10.596;2022-09-03T07:17:46;16.10;99.90
11047;DHT22;5576;50.008;10.596;2022-09-03T07:20:12;18.50;99.90
11047;DHT22;5576;50.008;10.596;2022-09-03T07:22:37;16.20;99.90
11047;DHT22;5576;50.008;10.596;2022-09-03T07:25:03;16.40;99.90
11047;DHT22;5576;50.008;10.596;2022-09-03T07:27:29;16.40;99.90
11047;DHT22;5576;50.008;10.596;2022-09-03T07:29:55;16.60;99.90
11047;DHT22;5576;50.008;10.596;2022-09-03T07:32:20;20.60;99.90
11047;DHT22;5576;50.008;10.596;2022-09-03T07:34:46;16.60;99.90
11047;DHT22;5576;50.008;10.596;2022-09-03T07:37:12;16.70;99.90
11047;DHT22;5576;50.008;10.596;2022-09-03T07:39:37;16.80;99.90
11047;DHT22;5576;50.008;10.596;2022-09-03T07:42:05;16.90;99.90
11047;DHT22;5576;50.008;10.596;2022-09-03T07:44:33;16.20;99.90
11047;DHT22;5576;50.008;10.596;2022-09-03T07:47:01;17.10;99.90
11047;DHT22;5576;50.008;10.596;2022-09-03T07:49:27;17.30;99.90
11047;DHT22;5576;50.008;10.596;2022-09-03T07:51:53;17.40;99.90
11047;DHT22;5576;50.008;10.596;2022-09-03T07:54:19;17.60;99.90
11047;DHT22;5576;50.008;10.596;2022-09-03T07:56:46;17.70;99.90
11047;DHT22;5576;50.008;10.596;2022-09-03T07:59:11;14.60;99.90
11047;DHT22;5576;50.008;10.596;2022-09-03T08:01:37;17.80;99.90
11047;DHT22;5576;50.008;10.596;2022-09-03T08:04:03;17.80;99.90
11047;DHT22;5576;50.008;10.596;2022-09-03T08:06:32;17.80;99.90
11047;DHT22;5576;50.008;10.596;2022-09-03T08:09:02;17.70;99.90
11047;DHT22;5576;50.008;10.596;2022-09-03T08:11:29;17.70;99.90
11047;DHT22;5576;50.008;10.596;2022-09-03T08:13:58;17.70;99.90
11047;DHT22;5576;50.008;10.596;2022-09-03T08:16:29;17.80;99.90
11047;DHT22;5576;50.008;10.596;2022-09-03T08:18:56;17.90;99.90
11047;DHT22;5576;50.008;10.596;2022-09-03T08:21:23;17.90;99.90
11047;DHT22;5576;50.008;10.596;2022-09-03T08:23:51;17.90;99.90
11047;DHT22;5576;50.008;10.596;2022-09-03T08:26:18;16.60;99.90
11047;DHT22;5576;50.008;10.596;2022-09-03T08:28:44;18.00;99.90
11047;DHT22;5576;50.008;10.596;2022-09-03T08:31:12;18.20;99.90
11047;DHT22;5576;50.008;10.596;2022-09-03T08:33:39;18.20;99.90
11047;DHT22;5576;50.008;10.596;2022-09-03T08:38:37;18.30;99.90
11047;DHT22;5576;50.008;10.596;2022-09-03T08:41:06;18.30;99.90
11047;DHT22;5576;50.008;10.596;2022-09-03T08:46:31;18.50;99.90
11047;DHT22;5576;50.008;10.596;2022-09-03T08:48:58;18.60;99.90
11047;DHT22;5576;50.008;10.596;2022-09-03T08:51:25;18.60;99.90
11047;DHT22;5576;50.008;10.596;2022-09-03T08:53:54;18.70;99.90
11047;DHT22;5576;50.008;10.596;2022-09-03T08:56:27;15.90;99.90
11047;DHT22;5576;50.008;10.596;2022-09-03T08:58:54;20.60;99.90
11047;DHT22;5576;50.008;10.596;2022-09-03T09:01:38;20.20;99.90
11047;DHT22;5576;50.008;10.596;2022-09-03T09:07:11;18.80;99.90
11047;DHT22;5576;50.008;10.596;2022-09-03T09:15:47;19.20;99.90
11047;DHT22;5576;50.008;10.596;2022-09-03T09:18:46;19.20;99.90
11047;DHT22;5576;50.008;10.596;2022-09-03T09:21:25;19.30;99.90
11047;DHT22;5576;50.008;10.596;2022-09-03T09:23:54;19.50;99.90
11047;DHT22;5576;50.008;10.596;2022-09-03T09:26:22;23.20;99.90
11047;DHT22;5576;50.008;10.596;2022-09-03T09:29:03;19.50;99.90
11047;DHT22;5576;50.008;10.596;2022-09-03T09:31:30;15.20;99.90
11047;DHT22;5576;50.008;10.596;2022-09-03T09:34:05;19.70;99.90
11047;DHT22;5576;50.008;10.596;2022-09-03T09:36:52;19.70;99.90
11047;DHT22;5576;50.008;10.596;2022-09-03T09:39:19;19.80;99.90
11047;DHT22;5576;50.008;10.596;2022-09-03T09:42:19;20.00;99.90
11047;DHT22;5576;50.008;10.596;2022-09-03T09:44:45;22.30;99.90
11047;DHT22;5576;50.008;10.596;2022-09-03T09:47:15;20.30;99.90
11047;DHT22;5576;50.008;10.596;2022-09-03T09:52:20;20.70;99.90
11047;DHT22;5576;50.008;10.596;2022-09-03T09:54:51;21.00;99.90
11047;DHT22;5576;50.008;10.596;2022-09-03T09:57:22;21.10;99.90
11047;DHT22;5576;50.008;10.596;2022-09-03T09:59:48;21.10;99.90
11047;DHT22;5576;50.008;10.596;2022-09-03T10:02:22;21.10;99.90
11047;DHT22;5576;50.008;10.596;2022-09-03T10:04:55;21.20;99.90
11047;DHT22;5576;50.008;10.596;2022-09-03T10:07:27;21.20;99.90
11047;DHT22;5576;50.008;10.596;2022-09-03T10:09:58;21.10;99.90
11047;DHT22;5576;50.008;10.596;2022-09-03T10:12:31;21.10;99.90
11047;DHT22;5576;50.008;10.596;2022-09-03T10:18:13;18.20;99.90
11047;DHT22;5576;50.008;10.596;2022-09-03T10:20:47;21.30;99.90
11047;DHT22;5576;50.008;10.596;2022-09-03T10:23:23;21.30;99.90
11047;DHT22;5576;50.008;10.596;2022-09-03T10:26:08;17.70;99.90
11047;DHT22;5576;50.008;10.596;2022-09-03T10:28:37;21.40;99.90
11047;DHT22;5576;50.008;10.596;2022-09-03T10:39:04;21.70;99.90
11047;DHT22;5576;50.008;10.596;2022-09-03T10:41:46;18.00;99.90
11047;DHT22;5576;50.008;10.596;2022-09-03T10:50:01;22.00;99.90
11047;DHT22;5576;50.008;10.596;2022-09-03T10:58:34;22.20;99.90
11047;DHT22;5576;50.008;10.596;2022-09-03T11:01:30;21.10;99.90
11047;DHT22;5576;50.008;10.596;2022-09-03T11:06:53;22.30;99.90
11047;DHT22;5576;50.008;10.596;2022-09-03T11:09:26;22.30;99.90
11047;DHT22;5576;50.008;10.596;2022-09-03T11:11:58;22.30;99.90
11047;DHT22;5576;50.008;10.596;2022-09-03T11:14:33;21.90;99.90
11047;DHT22;5576;50.008;10.596;2022-09-03T11:17:05;22.50;99.90
11047;DHT22;5576;50.008;10.596;2022-09-03T11:19:36;22.80;99.90
11047;DHT22;5576;50.008;10.596;2022-09-03T11:22:06;22.90;99.90
11047;DHT22;5576;50.008;10.596;2022-09-03T11:24:32;22.90;99.90
11047;DHT22;5576;50.008;10.596;2022-09-03T11:29:49;22.90;99.90
11047;DHT22;5576;50.008;10.596;2022-09-03T11:32:21;22.80;99.90
11047;DHT22;5576;50.008;10.596;2022-09-03T11:34:50;22.70;99.90
11047;DHT22;5576;50.008;10.596;2022-09-03T11:37:19;22.60;99.90
11047;DHT22;5576;50.008;10.596;2022-09-03T11:39:54;22.60;99.90
11047;DHT22;5576;50.008;10.596;2022-09-03T11:44:59;18.40;99.90
11047;DHT22;5576;50.008;10.596;2022-09-03T11:47:42;22.50;99.90
11047;DHT22;5576;50.008;10.596;2022-09-03T11:50:18;22.50;99.90
11047;DHT22;5576;50.008;10.596;2022-09-03T11:52:47;24.10;99.90
11047;DHT22;5576;50.008;10.596;2022-09-03T11:55:31;22.70;99.90
11047;DHT22;5576;50.008;10.596;2022-09-03T11:58:09;22.70;99.90
11047;DHT22;5576;50.008;10.596;2022-09-03T12:00:36;22.70;99.90
11047;DHT22;5576;50.008;10.596;2022-09-03T12:03:03;22.80;99.90
11047;DHT22;5576;50.008;10.596;2022-09-03T12:08:44;23.20;99.90
11047;DHT22;5576;50.008;10.596;2022-09-03T12:11:20;23.60;99.90
11047;DHT22;5576;50.008;10.596;2022-09-03T12:14:12;28.10;99.90
11047;DHT22;5576;50.008;10.596;2022-09-03T12:16:48;24.00;99.90
11047;DHT22;5576;50.008;10.596;2022-09-03T12:22:13;24.10;99.90
11047;DHT22;5576;50.008;10.596;2022-09-03T12:24:40;23.20;99.90
11047;DHT22;5576;50.008;10.596;2022-09-03T12:27:11;24.40;99.90
11047;DHT22;5576;50.008;10.596;2022-09-03T12:29:38;24.30;99.90
11047;DHT22;5576;50.008;10.596;2022-09-03T12:32:14;24.30;99.90
11047;DHT22;5576;50.008;10.596;2022-09-03T12:34:40;24.20;99.90
11047;DHT22;5576;50.008;10.596;2022-09-03T12:37:19;27.40;99.90
11047;DHT22;5576;50.008;10.596;2022-09-03T12:39:54;24.00;99.90
11047;DHT22;5576;50.008;10.596;2022-09-03T12:42:25;24.10;99.90
11047;DHT22;5576;50.008;10.596;2022-09-03T12:44:51;26.40;99.90
11047;DHT22;5576;50.008;10.596;2022-09-03T12:47:21;24.20;99.90
11047;DHT22;5576;50.008;10.596;2022-09-03T12:49:55;24.20;99.90
11047;DHT22;5576;50.008;10.596;2022-09-03T12:52:28;26.10;99.90
11047;DHT22;5576;50.008;10.596;2022-09-03T12:55:03;24.40;99.90
11047;DHT22;5576;50.008;10.596;2022-09-03T12:57:35;24.40;99.90
11047;DHT22;5576;50.008;10.596;2022-09-03T13:00:07;24.60;99.90
11047;DHT22;5576;50.008;10.596;2022-09-03T13:02:55;24.90;99.90
11047;DHT22;5576;50.008;10.596;2022-09-03T13:07:58;24.90;99.90
11047;DHT22;5576;50.008;10.596;2022-09-03T13:10:30;24.70;99.90
11047;DHT22;5576;50.008;10.596;2022-09-03T13:12:58;24.50;99.90
11047;DHT22;5576;50.008;10.596;2022-09-03T13:15:26;24.30;99.90
11047;DHT22;5576;50.008;10.596;2022-09-03T13:18:22;24.40;99.90
11047;DHT22;5576;50.008;10.596;2022-09-03T13:21:13;24.30;99.90
11047;DHT22;5576;50.008;10.596;2022-09-03T13:27:04;24.20;99.90
11047;DHT22;5576;50.008;10.596;2022-09-03T13:29:44;24.10;99.90
11047;DHT22;5576;50.008;10.596;2022-09-03T13:32:30;24.40;99.90
11047;DHT22;5576;50.008;10.596;2022-09-03T13:35:05;23.90;99.90
11047;DHT22;5576;50.008;10.596;2022-09-03T13:37:54;26.70;99.90
11047;DHT22;5576;50.008;10.596;2022-09-03T13:43:36;23.90;99.90
11047;DHT22;5576;50.008;10.596;2022-09-03T13:46:16;23.80;99.90
11047;DHT22;5576;50.008;10.596;2022-09-03T13:48:43;27.30;99.90
11047;DHT22;5576;50.008;10.596;2022-09-03T13:51:37;23.80;99.90
11047;DHT22;5576;50.008;10.596;2022-09-03T13:54:13;25.20;99.90
11047;DHT22;5576;50.008;10.596;2022-09-03T13:57:01;23.60;99.90
11047;DHT22;5576;50.008;10.596;2022-09-03T13:59:45;23.60;99.90
11047;DHT22;5576;50.008;10.596;2022-09-03T14:02:41;23.60;99.90
11047;DHT22;5576;50.008;10.596;2022-09-03T14:06:12;23.50;99.90
11047;DHT22;5576;50.008;10.596;2022-09-03T14:19:33;23.30;99.90
11047;DHT22;5576;50.008;10.596;2022-09-03T14:22:06;23.20;99.90
11047;DHT22;5576;50.008;10.596;2022-09-03T14:24:54;23.20;99.90
11047;DHT22;5576;50.008;10.596;2022-09-03T14:27:25;22.30;99.90
11047;DHT22;5576;50.008;10.596;2022-09-03T14:30:03;24.30;99.90
11047;DHT22;5576;50.008;10.596;2022-09-03T14:38:09;23.30;99.90
11047;DHT22;5576;50.008;10.596;2022-09-03T14:40:45;23.30;99.90
11047;DHT22;5576;50.008;10.596;2022-09-03T14:51:38;22.50;99.90
11047;DHT22;5576;50.008;10.596;2022-09-03T15:11:20;23.60;99.90
11047;DHT22;5576;50.008;10.596;2022-09-03T15:25:18;23.80;99.90
11047;DHT22;5576;50.008;10.596;2022-09-03T15:28:11;23.90;99.90
11047;DHT22;5576;50.008;10.596;2022-09-03T15:30:55;23.90;99.90
11047;DHT22;5576;50.008;10.596;2022-09-03T15:33:59;24.80;99.90
11047;DHT22;5576;50.008;10.596;2022-09-03T15:36:37;23.90;99.90
11047;DHT22;5576;50.008;10.596;2022-09-03T15:39:09;23.90;99.90
11047;DHT22;5576;50.008;10.596;2022-09-03T15:41:43;20.10;99.90
11047;DHT22;5576;50.008;10.596;2022-09-03T15:44:14;24.10;99.90
11047;DHT22;5576;50.008;10.596;2022-09-03T15:47:02;24.20;99.90
11047;DHT22;5576;50.008;10.596;2022-09-03T15:49:51;24.30;99.90
11047;DHT22;5576;50.008;10.596;2022-09-03T15:55:14;24.10;99.90
11047;DHT22;5576;50.008;10.596;2022-09-03T15:58:10;25.20;99.90
11047;DHT22;5576;50.008;10.596;2022-09-03T16:03:37;24.10;99.90
11047;DHT22;5576;50.008;10.596;2022-09-03T16:09:17;27.80;99.90
11047;DHT22;5576;50.008;10.596;2022-09-03T16:12:09;23.90;99.90
11047;DHT22;5576;50.008;10.596;2022-09-03T16:14:45;27.60;99.90
11047;DHT22;5576;50.008;10.596;2022-09-03T16:17:36;23.90;99.90
11047;DHT22;5576;50.008;10.596;2022-09-03T16:23:03;26.30;99.90
11047;DHT22;5576;50.008;10.596;2022-09-03T16:25:34;23.80;99.90
11047;DHT22;5576;50.008;10.596;2022-09-03T16:28:15;23.80;99.90
11047;DHT22;5576;50.008;10.596;2022-09-03T16:34:06;23.80;99.90
11047;DHT22;5576;50.008;10.596;2022-09-03T16:36:43;23.80;99.90
11047;DHT22;5576;50.008;10.596;2022-09-03T16:39:31;22.40;99.90
11047;DHT22;5576;50.008;10.596;2022-09-03T16:42:08;23.80;99.90
11047;DHT22;5576;50.008;10.596;2022-09-03T16:44:57;23.70;99.90
11047;DHT22;5576;50.008;10.596;2022-09-03T16:56:34;23.60;99.90
11047;DHT22;5576;50.008;10.596;2022-09-03T17:04:41;23.50;99.90
11047;DHT22;5576;50.008;10.596;2022-09-03T17:07:31;23.40;99.90
11047;DHT22;5576;50.008;10.596;2022-09-03T17:10:12;23.80;99.90
11047;DHT22;5576;50.008;10.596;2022-09-03T17:18:50;23.30;99.90
11047;DHT22;5576;50.008;10.596;2022-09-03T17:21:35;23.30;99.90
11047;DHT22;5576;50.008;10.596;2022-09-03T17:24:22;23.30;99.90
11047;DHT22;5576;50.008;10.596;2022-09-03T17:26:56;23.40;99.90
11047;DHT22;5576;50.008;10.596;2022-09-03T17:30:03;27.00;99.90
11047;DHT22;5576;50.008;10.596;2022-09-03T17:32:44;23.00;99.90
11047;DHT22;5576;50.008;10.596;2022-09-03T17:35:19;23.00;99.90
11047;DHT22;5576;50.008;10.596;2022-09-03T17:38:08;20.70;99.90
11047;DHT22;5576;50.008;10.596;2022-09-03T17:44:03;22.80;99.90
11047;DHT22;5576;50.008;10.596;2022-09-03T17:49:22;22.60;99.90
11047;DHT22;5576;50.008;10.596;2022-09-03T17:51:50;22.50;99.90
11047;DHT22;5576;50.008;10.596;2022-09-03T17:56:59;22.20;99.90
11047;DHT22;5576;50.008;10.596;2022-09-03T17:59:41;22.10;99.90
11047;DHT22;5576;50.008;10.596;2022-09-03T18:05:17;21.50;99.90
11047;DHT22;5576;50.008;10.596;2022-09-03T18:13:20;21.20;99.90
11047;DHT22;5576;50.008;10.596;2022-09-03T18:15:51;21.10;99.90
11047;DHT22;5576;50.008;10.596;2022-09-03T18:18:26;25.20;99.90
11047;DHT22;5576;50.008;10.596;2022-09-03T18:20:54;21.10;99.90
11047;DHT22;5576;50.008;10.596;2022-09-03T18:26:35;21.20;99.90
11047;DHT22;5576;50.008;10.596;2022-09-03T18:29:33;21.20;99.90
11047;DHT22;5576;50.008;10.596;2022-09-03T18:32:20;21.20;99.90
11047;DHT22;5576;50.008;10.596;2022-09-03T18:35:07;23.30;99.90
11047;DHT22;5576;50.008;10.596;2022-09-03T18:37:53;21.10;99.90
11047;DHT22;5576;50.008;10.596;2022-09-03T18:41:07;21.00;99.90
11047;DHT22;5576;50.008;10.596;2022-09-03T18:49:45;20.50;99.90
11047;DHT22;5576;50.008;10.596;2022-09-03T18:52:44;20.30;99.90
11047;DHT22;5576;50.008;10.596;2022-09-03T19:01:49;19.80;99.90
11047;DHT22;5576;50.008;10.596;2022-09-03T19:08:05;19.50;99.90
11047;DHT22;5576;50.008;10.596;2022-09-03T19:11:03;19.50;99.90
11047;DHT22;5576;50.008;10.596;2022-09-03T19:13:55;19.30;99.90
11047;DHT22;5576;50.008;10.596;2022-09-03T19:17:05;19.10;99.90
11047;DHT22;5576;50.008;10.596;2022-09-03T19:19:56;17.20;99.90
11047;DHT22;5576;50.008;10.596;2022-09-03T19:22:46;18.90;99.90
11047;DHT22;5576;50.008;10.596;2022-09-03T19:25:32;18.80;99.90
11047;DHT22;5576;50.008;10.596;2022-09-03T19:31:33;18.70;99.90
11047;DHT22;5576;50.008;10.596;2022-09-03T19:34:36;20.30;99.90
11047;DHT22;5576;50.008;10.596;2022-09-03T19:46:59;18.40;99.90
11047;DHT22;5576;50.008;10.596;2022-09-03T19:50:10;18.40;99.90
11047;DHT22;5576;50.008;10.596;2022-09-03T19:53:04;18.30;99.90
11047;DHT22;5576;50.008;10.596;2022-09-03T19:55:54;18.20;99.90
11047;DHT22;5576;50.008;10.596;2022-09-03T19:58:44;18.10;99.90
11047;DHT22;5576;50.008;10.596;2022-09-03T20:01:35;18.10;99.90
11047;DHT22;5576;50.008;10.596;2022-09-03T20:04:30;18.10;99.90
11047;DHT22;5576;50.008;10.596;2022-09-03T20:07:17;18.10;99.90
11047;DHT22;5576;50.008;10.596;2022-09-03T20:10:07;18.00;99.90